Архив погоды в Агзу

Метеограмма Агзу
Четверг, 22 Августа
Время местн. Темп Ветер Видим Явления Облачность нижн/средн/верх Атм. давл. Влжн Точка росы ВНГО R Сост. почвы Tg s
Напр Скр Прв ур.ст ур.м изм
04:00 - +12.6° В 1 - - - - 747 762 -0.3 96% +12° - - - - -
01:00 +13° В,С-В 1 - 20 км - облачно 748 763 -0.5 95% +12.2° 600 м - - - -
Среда, 21 Августа
Время местн. Темп Ветер Видим Явления Облачность нижн/средн/верх Атм. давл. Влжн Точка росы ВНГО R Сост. почвы Tg s
Напр Скр Прв ур.ст ур.м изм
22:00 - +13.6° В 1 - - - - 748 763 +0.5 94% +12.6° - - - - -
19:00 +14.2° В,Ю-В 1 - более 50 км - облачно 748 762 +0.7 92% +13° 600 м 0.1 - - -
16:00 - +15.9° Ю-В 1 - - - - 747 762 -0.5 91% +14.4° - - - - -
13:00 +17.2° Ю-В 2 - 50 км - облачно 747 762 -0.5 82% +14.1° 1 км - - - -
10:00 - +15.7° Ю,Ю-В 1 - - - - 748 763 +0.6 89% +13.9° - - - - -
07:00 +15° В,Ю-В 1 - 50 км - облачно 747 762 +0.6 94% +14.1° 600 м 0 Влажная (без луж) - -
04:00 - +14.9° штиль 0 - - - - 747 762 +0.1 94% +14° - - - - -
01:00 +15.2° штиль 0 - 20 км - облачно 747 762 0 94% +14.2° 200 м - - - -
Вторник, 20 Августа
Время местн. Темп Ветер Видим Явления Облачность нижн/средн/верх Атм. давл. Влжн Точка росы ВНГО R Сост. почвы Tg s
Напр Скр Прв ур.ст ур.м изм
22:00 - +15.7° В 1 - - - - 747 762 +1 91% +14.3° - - - - -
19:00 +17.5° В 1 - 50 км - облачно 746 760 +0.5 85% +14.9° 1 км 0 - - -
16:00 - +19.6° Ю 1 - - - - 745 760 -0.6 74% +14.8° - - - - -
13:00 +19.7° Ю,Ю-З 2 - 50 км - преимущественно облачно 746 760 -0.8 72% +14.5° 1 км - - - -
10:00 - +15.7° Ю-В 1 - - - - 747 761 -0.5 83% +12.9° - - - - -
07:00 +13.9° В 1 - более 50 км - облачно 747 762 -0.2 93% +12.8° 1 км 0 Сырая (есть малые или большие лужи) +15° -
04:00 - +14.2° В,Ю-В 1 - - - - 747 762 -0.4 89% +12.4° - - - - -
01:00 +14.4° В 1 - 20 км - облачно 748 762 0 92% +13.2° 1 км - - - -
Понедельник, 19 Августа
Время местн. Темп Ветер Видим Явления Облачность нижн/средн/верх Атм. давл. Влжн Точка росы ВНГО R Сост. почвы Tg s
Напр Скр Прв ур.ст ур.м изм
22:00 - +15.1° В,Ю-В 1 - - - - 748 762 +0.4 90% +13.4° - - - - -
19:00 +16.4° Ю,Ю-В 2 - 50 км - облачно 747 762 -0.1 81% +13.2° 1 км 0 - - -
16:00 - +17.4° Ю 2 - - - - 747 762 -0.2 77% +13.3° - - - - -
13:00 +17.8° Ю 2 - 50 км - облачно 747 762 +0.1 74% +13.1° 1 км - - - -
10:00 - +16° Ю-В 1 - - - - 747 762 +0.2 80% +12.5° - - - - -
07:00 +11.3° штиль 0 - 50 км - облачно с прояснениями 747 762 +0.8 97% +10.9° 600 м 0 Сырая (есть малые или большие лужи) - -
04:00 - +11.2° штиль 0 - - - - 746 761 +0.3 97% +10.7° - - - - -
01:00 +11.1° штиль 0 - 20 км - облачно с прояснениями 746 761 +0.4 97% +10.6° 200 м - - - -